Time;durP1;ratioP1;P1;durP2;ratioP2;P2;SDS_P1;SDS_P2;PMS_P1;PMS_P2;Temp;Humidity;BMP_temperature;BMP_pressure;BME280_temperature;BME280_humidity;BME280_pressure;Samples;Min_cycle;Max_cycle;Signal;HPM_P1;HPM_P2
2023/01/24 00:01:47;;;;;;;16.65;11.82;;;3.70;99.90;;;;;;5013308;28;20034;-85
2023/01/24 00:04:19;;;;;;;;;;;3.70;99.90;;;;;;5008336;28;20046;-85
2023/01/24 00:06:46;;;;;;;17.27;11.82;;;3.70;99.90;;;;;;5012643;28;19912;-85
2023/01/24 00:09:36;;;;;;;17.33;11.70;;;3.70;99.90;;;;;;4996641;28;20038;-84
2023/01/24 00:12:08;;;;;;;15.05;10.13;;;3.70;99.90;;;;;;5029627;28;20057;-84
2023/01/24 00:14:57;;;;;;;17.02;11.07;;;3.70;99.90;;;;;;5015158;28;20034;-84
2023/01/24 00:17:27;;;;;;;14.25;10.15;;;3.70;99.90;;;;;;5022645;28;20038;-84
2023/01/24 00:19:57;;;;;;;16.88;11.27;;;3.70;99.90;;;;;;4998050;28;20037;-85
2023/01/24 00:22:34;;;;;;;17.08;12.50;;;3.70;99.90;;;;;;5014100;28;20540;-84
2023/01/24 00:25:09;;;;;;;16.40;11.27;;;3.70;99.90;;;;;;5012395;28;20038;-85
2023/01/24 00:27:46;;;;;;;;;;;;;;;;;;;;;
2023/01/24 00:30:21;;;;;;;13.40;9.23;;;3.70;99.90;;;;;;5013165;28;20142;-84
2023/01/24 00:32:51;;;;;;;16.02;10.90;;;3.70;99.90;;;;;;5014281;28;20038;-85
2023/01/24 00:35:21;;;;;;;16.85;10.60;;;3.70;99.90;;;;;;5012838;28;20437;-85
2023/01/24 00:37:56;;;;;;;15.63;10.82;;;3.60;99.90;;;;;;4995952;28;20137;-86
2023/01/24 00:40:26;;;;;;;15.20;10.63;;;3.70;99.90;;;;;;5012417;28;20128;-85
2023/01/24 00:43:06;;;;;;;;;;;;;;;;;;;;;
2023/01/24 00:46:04;;;;;;;18.17;12.63;;;3.60;99.90;;;;;;5013869;28;20049;-87
2023/01/24 00:48:32;;;;;;;15.02;10.30;;;3.60;99.90;;;;;;5018593;28;20083;-84
2023/01/24 00:51:12;;;;;;;15.18;10.27;;;3.60;99.90;;;;;;5015550;28;20072;-84
2023/01/24 00:53:47;;;;;;;14.27;9.32;;;3.60;99.90;;;;;;5019887;28;20030;-84
2023/01/24 00:56:23;;;;;;;13.75;9.30;;;3.60;99.90;;;;;;5005103;28;20475;-86
2023/01/24 00:58:55;;;;;;;16.02;10.02;;;3.60;99.90;;;;;;5019536;28;20044;-86
2023/01/24 01:01:31;;;;;;;16.10;10.90;;;3.50;99.90;;;;;;5025907;28;20112;-84
2023/01/24 01:03:58;;;;;;;15.95;10.05;;;3.60;99.90;;;;;;5004199;28;20033;-86
2023/01/24 01:06:25;;;;;;;14.45;9.48;;;3.60;99.90;;;;;;5001960;28;20033;-85
2023/01/24 01:08:51;;;;;;;15.07;10.38;;;3.60;99.90;;;;;;5004994;28;20048;-85
2023/01/24 01:11:17;;;;;;;16.60;10.95;;;3.60;99.90;;;;;;5024032;28;20080;-86
2023/01/24 01:13:48;;;;;;;13.90;9.32;;;3.60;99.90;;;;;;5017393;28;20386;-84
2023/01/24 01:16:17;;;;;;;13.88;9.48;;;3.60;99.90;;;;;;5013266;28;20077;-85
2023/01/24 01:18:44;;;;;;;14.68;9.88;;;3.60;99.90;;;;;;5013585;28;20046;-85
2023/01/24 01:21:12;;;;;;;13.55;9.70;;;3.60;99.90;;;;;;5009897;28;20034;-85
2023/01/24 01:23:39;;;;;;;14.20;9.63;;;3.60;99.90;;;;;;5015553;28;20029;-85
2023/01/24 01:26:10;;;;;;;14.15;9.93;;;3.60;99.90;;;;;;5017245;28;20053;-85
2023/01/24 01:28:43;;;;;;;15.27;9.95;;;3.60;99.90;;;;;;5032204;28;20147;-86
2023/01/24 01:31:09;;;;;;;15.32;10.23;;;3.60;99.90;;;;;;5017077;28;20037;-83
2023/01/24 01:33:40;;;;;;;15.32;9.93;;;3.60;99.90;;;;;;4998998;28;20038;-85
2023/01/24 01:36:08;;;;;;;14.75;10.52;;;3.60;99.90;;;;;;4999524;28;20036;-88
2023/01/24 01:38:34;;;;;;;14.63;9.63;;;3.60;99.90;;;;;;4999096;28;20052;-87
2023/01/24 01:41:00;;;;;;;15.48;9.70;;;3.60;99.90;;;;;;5015431;28;20124;-86
2023/01/24 01:43:31;;;;;;;15.57;10.65;;;3.60;99.90;;;;;;4983163;28;20474;-85
2023/01/24 01:46:20;;;;;;;15.27;9.20;;;3.60;99.90;;;;;;5005220;28;20030;-86
2023/01/24 01:49:02;;;;;;;17.98;11.73;;;3.60;99.90;;;;;;5000866;28;20042;-85
2023/01/24 01:51:38;;;;;;;14.88;10.07;;;3.60;99.90;;;;;;5001994;28;20053;-87
2023/01/24 01:54:12;;;;;;;16.50;10.80;;;3.60;99.90;;;;;;5015275;28;20030;-86
2023/01/24 01:56:51;;;;;;;15.48;10.32;;;3.60;99.90;;;;;;5014842;28;20046;-85
2023/01/24 01:59:50;;;;;;;15.77;10.63;;;3.60;99.90;;;;;;5014816;28;20034;-87
2023/01/24 02:02:18;;;;;;;16.58;11.68;;;3.60;99.90;;;;;;4996286;28;20030;-85
2023/01/24 02:04:52;;;;;;;17.00;11.27;;;3.60;99.90;;;;;;4995468;28;20038;-85
2023/01/24 02:08:01;;;;;;;15.15;9.68;;;3.60;99.90;;;;;;5002111;28;20037;-86
2023/01/24 02:11:37;;;;;;;14.73;9.80;;;3.50;99.90;;;;;;5012592;28;20049;-86
2023/01/24 02:13:15;;;;;;;16.10;10.35;;;3.60;99.90;;;;;;5000247;28;20030;-86
2023/01/24 02:16:06;;;;;;;15.55;10.30;;;3.50;99.90;;;;;;5014598;28;20124;-87
2023/01/24 02:18:43;;;;;;;17.98;11.63;;;3.50;99.90;;;;;;5014960;28;20061;-85
2023/01/24 02:21:33;;;;;;;18.60;11.48;;;3.50;99.90;;;;;;5013549;28;20121;-85
2023/01/24 02:24:10;;;;;;;16.80;11.45;;;3.50;99.90;;;;;;5014941;28;20040;-85
2023/01/24 02:26:36;;;;;;;18.00;12.13;;;3.50;99.90;;;;;;5014816;28;20481;-86
2023/01/24 02:29:13;;;;;;;17.15;10.98;;;3.50;99.90;;;;;;4998554;28;20441;-86
2023/01/24 02:32:02;;;;;;;16.60;10.90;;;3.40;99.90;;;;;;5015452;28;20038;-84
2023/01/24 02:34:29;;;;;;;15.85;10.32;;;3.50;99.90;;;;;;5014875;28;20037;-85
2023/01/24 02:36:58;;;;;;;17.35;11.52;;;3.50;99.90;;;;;;5014259;28;20042;-85
2023/01/24 02:39:45;;;;;;;17.13;11.65;;;3.50;99.90;;;;;;5014600;28;20474;-85
2023/01/24 02:42:15;;;;;;;19.92;12.68;;;3.50;99.90;;;;;;5014685;28;20030;-85
2023/01/24 02:44:51;;;;;;;19.42;12.40;;;3.40;99.90;;;;;;5014872;28;20116;-85
2023/01/24 02:47:17;;;;;;;17.33;12.20;;;3.40;99.90;;;;;;5014718;28;20510;-85
2023/01/24 02:49:46;;;;;;;18.55;11.93;;;3.40;99.90;;;;;;5015893;28;20045;-84
2023/01/24 02:54:57;;;;;;;19.73;13.18;;;3.40;99.90;;;;;;5014424;28;20045;-85
2023/01/24 03:00:08;;;;;;;20.83;13.95;;;3.30;99.90;;;;;;5015769;28;20037;-84
2023/01/24 03:02:33;;;;;;;20.13;13.63;;;3.30;99.90;;;;;;5014512;28;20060;-85
2023/01/24 03:04:59;;;;;;;19.00;11.98;;;3.30;99.90;;;;;;5014351;28;20113;-85
2023/01/24 03:07:25;;;;;;;18.05;12.05;;;3.30;99.90;;;;;;5014387;28;20486;-85
2023/01/24 03:09:51;;;;;;;18.55;12.50;;;3.30;99.90;;;;;;5014419;28;20052;-85
2023/01/24 03:34:33;;;;;;;22.42;14.95;;;3.20;99.90;;;;;;5015350;28;20451;-85
2023/01/24 03:37:03;;;;;;;19.65;13.27;;;3.20;99.90;;;;;;5013730;28;20077;-85
2023/01/24 03:42:22;;;;;;;20.10;13.93;;;3.20;99.90;;;;;;5014147;28;20064;-85
2023/01/24 03:44:49;;;;;;;19.73;13.73;;;3.10;99.90;;;;;;4997193;28;20034;-85
2023/01/24 03:47:14;;;;;;;18.92;13.73;;;3.10;99.90;;;;;;5013547;28;20037;-85
2023/01/24 03:52:26;;;;;;;21.08;13.65;;;3.10;99.90;;;;;;5014630;28;20169;-85
2023/01/24 03:54:51;;;;;;;22.55;15.00;;;3.10;99.90;;;;;;4997026;28;20072;-85
2023/01/24 03:57:18;;;;;;;17.30;11.90;;;3.20;99.90;;;;;;5013345;28;20092;-84
2023/01/24 03:59:45;;;;;;;21.00;13.82;;;3.20;99.90;;;;;;5013559;28;20358;-85
2023/01/24 04:02:10;;;;;;;20.85;14.30;;;3.10;99.90;;;;;;5013598;28;20087;-85
2023/01/24 04:07:22;;;;;;;20.65;14.23;;;3.10;99.90;;;;;;5013490;28;20065;-86
2023/01/24 04:09:48;;;;;;;19.00;13.52;;;3.10;99.90;;;;;;5013285;28;20432;-85
2023/01/24 04:12:17;;;;;;;18.38;14.00;;;3.10;99.90;;;;;;5012505;28;20045;-84
2023/01/24 04:14:43;;;;;;;20.45;14.88;;;3.10;99.90;;;;;;5013154;28;20410;-84
2023/01/24 04:17:11;;;;;;;22.30;13.65;;;3.10;99.90;;;;;;5014328;28;20153;-85
2023/01/24 04:19:37;;;;;;;19.65;14.02;;;3.10;99.90;;;;;;5014278;28;20128;-85
2023/01/24 04:22:04;;;;;;;19.00;13.18;;;3.10;99.90;;;;;;5012955;28;20030;-84
2023/01/24 04:24:30;;;;;;;17.67;13.20;;;3.10;99.90;;;;;;5013950;28;20045;-86
2023/01/24 04:26:58;;;;;;;20.48;13.25;;;3.10;99.90;;;;;;5013196;28;20034;-85
2023/01/24 04:29:24;;;;;;;18.98;12.95;;;3.10;99.90;;;;;;5013537;28;20046;-84
2023/01/24 04:31:50;;;;;;;18.63;12.90;;;3.10;99.90;;;;;;5029906;28;20086;-84
2023/01/24 04:34:17;;;;;;;19.83;13.05;;;3.10;99.90;;;;;;5034276;28;20066;-84
2023/01/24 04:36:44;;;;;;;18.98;12.48;;;3.20;99.90;;;;;;5033307;28;20045;-85
2023/01/24 04:39:10;;;;;;;17.17;12.55;;;3.20;99.90;;;;;;5015798;28;20108;-84
2023/01/24 04:41:37;;;;;;;20.02;13.98;;;3.10;99.90;;;;;;5014067;28;20034;-86
2023/01/24 04:44:24;;;;;;;24.27;15.45;;;3.10;99.90;;;;;;5014966;28;20034;-85
2023/01/24 04:47:00;;;;;;;21.73;15.07;;;3.10;99.90;;;;;;5013296;28;20477;-85
2023/01/24 04:49:26;;;;;;;21.60;15.07;;;3.10;99.90;;;;;;5012978;28;20049;-85
2023/01/24 04:51:52;;;;;;;22.58;16.13;;;3.10;99.90;;;;;;5013948;28;20054;-85
2023/01/24 04:54:24;;;;;;;22.63;14.77;;;3.00;99.90;;;;;;5016389;28;20427;-85
2023/01/24 04:56:51;;;;;;;20.90;14.75;;;3.10;99.90;;;;;;5016106;28;20037;-85
2023/01/24 04:59:18;;;;;;;20.67;14.23;;;3.00;99.90;;;;;;5017730;28;20040;-85
2023/01/24 05:01:47;;;;;;;21.45;14.98;;;3.00;99.90;;;;;;5016649;28;20498;-85
2023/01/24 05:04:12;;;;;;;21.02;13.95;;;3.00;99.90;;;;;;5016678;28;20042;-85
2023/01/24 05:06:38;;;;;;;21.52;14.63;;;3.00;99.90;;;;;;5016355;28;20049;-84
2023/01/24 05:09:05;;;;;;;18.70;13.55;;;3.00;99.90;;;;;;5000516;28;20045;-85
2023/01/24 05:11:31;;;;;;;19.55;13.50;;;3.00;99.90;;;;;;5016301;28;20041;-85
2023/01/24 05:13:57;;;;;;;20.50;13.82;;;3.00;99.90;;;;;;5000832;28;20044;-85
2023/01/24 05:16:23;;;;;;;21.98;14.75;;;3.00;99.90;;;;;;5015927;28;20117;-85
2023/01/24 05:18:52;;;;;;;22.48;14.45;;;3.00;99.90;;;;;;5016032;28;20050;-85
2023/01/24 05:21:18;;;;;;;21.45;13.90;;;3.00;99.90;;;;;;5016273;28;20022;-85
2023/01/24 05:23:51;;;;;;;22.80;14.55;;;3.00;99.90;;;;;;4999947;28;20409;-86
2023/01/24 05:26:36;;;;;;;20.98;14.10;;;3.00;99.90;;;;;;5017457;28;20474;-86
2023/01/24 05:29:03;;;;;;;21.98;14.88;;;3.00;99.90;;;;;;5016917;28;20049;-84
2023/01/24 05:31:31;;;;;;;25.80;17.42;;;3.00;99.90;;;;;;5016052;28;20045;-86
2023/01/24 05:34:04;;;;;;;25.80;17.83;;;3.00;99.90;;;;;;5015030;28;20101;-85
2023/01/24 05:36:43;;;;;;;20.83;15.05;;;3.00;99.90;;;;;;5015046;28;20041;-85
2023/01/24 05:39:09;;;;;;;23.67;16.33;;;3.00;99.90;;;;;;5015009;28;20041;-86
2023/01/24 05:41:38;;;;;;;25.33;17.73;;;3.00;99.90;;;;;;5015664;28;20076;-86
2023/01/24 05:44:04;;;;;;;22.98;16.42;;;3.00;99.90;;;;;;5013959;28;20675;-86
2023/01/24 05:46:30;;;;;;;26.27;18.55;;;2.90;99.90;;;;;;5015326;28;20041;-86
2023/01/24 05:49:03;;;;;;;24.13;16.27;;;3.00;99.90;;;;;;5017020;28;20041;-85
2023/01/24 05:51:29;;;;;;;24.27;16.08;;;3.00;99.90;;;;;;5016885;28;20046;-86
2023/01/24 05:53:55;;;;;;;25.67;17.50;;;2.90;99.90;;;;;;5016755;28;20041;-85
2023/01/24 05:56:21;;;;;;;26.52;17.88;;;3.00;99.90;;;;;;5015626;28;20040;-85
2023/01/24 05:58:50;;;;;;;30.45;20.83;;;2.90;99.90;;;;;;5016283;28;20029;-84
2023/01/24 06:01:22;;;;;;;30.42;21.15;;;2.90;99.90;;;;;;5015765;28;20149;-85
2023/01/24 06:03:50;;;;;;;26.60;19.05;;;2.90;99.90;;;;;;5015480;28;20030;-85
2023/01/24 06:06:27;;;;;;;26.02;18.13;;;2.90;99.90;;;;;;5014653;28;20458;-85
2023/01/24 06:09:05;;;;;;;27.25;19.00;;;2.90;99.90;;;;;;5017080;28;20068;-85
2023/01/24 06:11:33;;;;;;;29.02;20.08;;;2.80;99.90;;;;;;5015745;28;20033;-84
2023/01/24 06:14:01;;;;;;;27.55;19.92;;;2.80;99.90;;;;;;5015373;28;20041;-86
2023/01/24 06:16:31;;;;;;;25.88;18.30;;;2.80;99.90;;;;;;5015224;28;20030;-85
2023/01/24 06:18:58;;;;;;;33.22;22.48;;;2.80;99.90;;;;;;5014385;28;20402;-85
2023/01/24 06:21:55;;;;;;;28.63;18.73;;;2.80;99.90;;;;;;5013777;28;20367;-84
2023/01/24 06:24:28;;;;;;;28.38;19.48;;;2.80;99.90;;;;;;5015457;28;20046;-85
2023/01/24 06:26:56;;;;;;;27.45;18.17;;;2.80;99.90;;;;;;5014059;28;20077;-85
2023/01/24 06:29:23;;;;;;;29.15;19.77;;;2.80;99.90;;;;;;5013250;28;20070;-85
2023/01/24 06:31:57;;;;;;;26.38;18.20;;;2.80;99.90;;;;;;5015278;28;20098;-85
2023/01/24 06:34:42;;;;;;;24.98;16.52;;;2.80;99.90;;;;;;5013247;28;20037;-86
2023/01/24 06:37:23;;;;;;;;;;;2.80;99.90;;;;;;5015312;28;20076;-85
2023/01/24 06:39:51;;;;;;;23.95;16.08;;;2.70;99.90;;;;;;5029209;28;19968;-86
2023/01/24 06:42:25;;;;;;;23.55;15.88;;;2.70;99.90;;;;;;5026658;28;20041;-86
2023/01/24 06:44:56;;;;;;;24.17;16.02;;;2.70;99.90;;;;;;5014540;28;20073;-85
2023/01/24 06:47:44;;;;;;;25.45;16.33;;;2.70;99.90;;;;;;5014117;28;20516;-85
2023/01/24 06:50:21;;;;;;;21.15;14.30;;;2.80;99.90;;;;;;5013875;28;20041;-85
2023/01/24 06:52:49;;;;;;;20.50;14.18;;;2.80;99.90;;;;;;4997031;28;20050;-86
2023/01/24 06:55:23;;;;;;;22.05;14.98;;;2.80;99.90;;;;;;5015238;28;20109;-85
2023/01/24 06:58:13;;;;;;;24.73;17.73;;;2.80;99.90;;;;;;5013170;28;20544;-85
2023/01/24 07:00:54;;;;;;;28.38;18.77;;;2.80;99.90;;;;;;5011792;28;20040;-85
2023/01/24 07:03:28;;;;;;;24.05;16.75;;;2.80;99.90;;;;;;5013935;28;20052;-86
2023/01/24 07:06:05;;;;;;;22.95;15.00;;;2.80;99.90;;;;;;5013842;28;20092;-86
2023/01/24 07:08:46;;;;;;;22.45;14.98;;;2.80;99.90;;;;;;4997194;28;20129;-85
2023/01/24 07:11:23;;;;;;;21.98;13.73;;;2.80;99.90;;;;;;5013879;28;20570;-86
2023/01/24 07:14:00;;;;;;;23.75;16.08;;;2.80;99.90;;;;;;4995216;28;20038;-87
2023/01/24 07:16:28;;;;;;;22.77;15.68;;;2.80;99.90;;;;;;5003480;28;20116;-88
2023/01/24 07:18:58;;;;;;;26.83;17.45;;;2.80;99.90;;;;;;5013421;28;20061;-86
2023/01/24 07:21:27;;;;;;;26.73;17.63;;;2.80;99.90;;;;;;4996671;28;20034;-86
2023/01/24 07:24:09;;;;;;;26.80;17.23;;;2.70;99.90;;;;;;5013154;28;20068;-86
2023/01/24 07:26:39;;;;;;;25.00;17.45;;;2.80;99.90;;;;;;5013669;28;20061;-85
2023/01/24 07:29:08;;;;;;;29.08;19.02;;;2.80;99.90;;;;;;5014744;28;20552;-85
2023/01/24 07:31:40;;;;;;;29.30;19.45;;;2.80;99.90;;;;;;5013004;28;20069;-85
2023/01/24 07:34:14;;;;;;;30.52;20.38;;;2.80;99.90;;;;;;5014099;28;20128;-85
2023/01/24 07:36:49;;;;;;;27.10;18.27;;;2.70;99.90;;;;;;5017474;28;20046;-86
2023/01/24 07:39:19;;;;;;;26.80;18.17;;;2.70;99.90;;;;;;5016148;28;20038;-84
2023/01/24 07:42:07;;;;;;;25.50;17.02;;;2.70;99.90;;;;;;4999229;28;20100;-84
2023/01/24 07:44:36;;;;;;;26.13;17.42;;;2.70;99.90;;;;;;4998142;28;20128;-85
2023/01/24 07:47:07;;;;;;;25.10;17.85;;;2.70;99.90;;;;;;5014385;28;20045;-85
2023/01/24 07:49:50;;;;;;;29.80;20.30;;;2.80;99.90;;;;;;5028395;28;20036;-85
2023/01/24 07:52:16;;;;;;;27.50;19.08;;;2.80;99.90;;;;;;4996599;28;20108;-84
2023/01/24 07:54:43;;;;;;;28.50;19.23;;;2.70;99.90;;;;;;5012215;28;20125;-85
2023/01/24 07:57:12;;;;;;;27.67;19.10;;;2.70;99.90;;;;;;5012160;28;20041;-86
2023/01/24 07:59:53;;;;;;;27.92;18.17;;;2.70;99.90;;;;;;5012992;28;20034;-85
2023/01/24 08:05:54;;;;;;;26.27;17.20;;;2.80;99.90;;;;;;5003284;28;20092;-86
2023/01/24 08:08:42;;;;;;;27.02;18.25;;;2.70;99.90;;;;;;5010800;28;20037;-84
2023/01/24 08:11:33;;;;;;;;;;;;;;;;;;;;;
2023/01/24 08:14:12;;;;;;;25.33;17.35;;;2.80;99.90;;;;;;5010464;28;20036;-85
2023/01/24 08:17:42;;;;;;;;;;;;;;;;;;;;;
2023/01/24 08:24:09;;;;;;;26.75;18.17;;;2.80;99.90;;;;;;4985594;28;20132;-85
2023/01/24 08:26:52;;;;;;;24.58;16.55;;;2.90;99.90;;;;;;4994085;28;20525;-84
2023/01/24 08:29:26;;;;;;;24.75;16.25;;;2.90;99.90;;;;;;4995617;28;20486;-84
2023/01/24 08:32:00;;;;;;;24.60;15.75;;;2.90;99.90;;;;;;4966073;28;20033;-85
2023/01/24 08:34:41;;;;;;;25.80;16.17;;;2.90;99.90;;;;;;4987963;28;20038;-85
2023/01/24 08:37:14;;;;;;;24.55;17.38;;;2.90;99.90;;;;;;5004513;28;20038;-84
2023/01/24 08:39:44;;;;;;;;;;;2.90;99.90;;;;;;4997792;28;20022;-83
2023/01/24 08:42:11;;;;;;;25.50;17.00;;;2.90;99.90;;;;;;4993574;28;20346;-84
2023/01/24 08:44:52;;;;;;;29.50;19.38;;;2.90;99.90;;;;;;4997148;28;20406;-85
2023/01/24 08:47:35;;;;;;;27.40;19.00;;;2.80;99.90;;;;;;5017426;28;20462;-84
2023/01/24 08:50:14;;;;;;;28.40;19.90;;;2.80;99.90;;;;;;5014047;28;20052;-83
2023/01/24 08:52:44;;;;;;;32.58;22.52;;;2.80;99.90;;;;;;5000530;28;20466;-83
2023/01/24 08:55:36;;;;;;;29.92;18.90;;;2.80;99.90;;;;;;5025809;28;20049;-84
2023/01/24 08:58:27;;;;;;;26.27;18.15;;;2.80;99.90;;;;;;5013128;28;20041;-84
2023/01/24 09:01:10;;;;;;;31.20;21.48;;;2.80;99.90;;;;;;5012248;28;20042;-84
2023/01/24 09:03:55;;;;;;;28.20;19.23;;;2.80;99.90;;;;;;5011966;28;20470;-84
2023/01/24 09:06:25;;;;;;;24.70;17.17;;;2.80;99.90;;;;;;5011624;28;20030;-84
2023/01/24 09:08:56;;;;;;;24.45;17.58;;;2.80;99.90;;;;;;4993875;28;20126;-85
2023/01/24 09:11:24;;;;;;;22.60;16.60;;;2.90;99.90;;;;;;5007741;28;20030;-85
2023/01/24 09:13:56;;;;;;;28.83;19.38;;;2.90;99.90;;;;;;5010736;28;20049;-84
2023/01/24 09:16:34;;;;;;;28.60;18.98;;;2.90;99.90;;;;;;4995840;28;20165;-84
2023/01/24 09:19:05;;;;;;;24.17;17.02;;;2.90;99.90;;;;;;4987741;28;20474;-85
2023/01/24 09:21:36;;;;;;;27.27;17.30;;;2.90;99.90;;;;;;5025613;28;20033;-84
2023/01/24 09:24:11;;;;;;;29.00;19.98;;;2.90;99.90;;;;;;5012647;28;20501;-85
2023/01/24 09:26:39;;;;;;;27.70;19.92;;;2.90;99.90;;;;;;5012670;28;20113;-85
2023/01/24 09:29:07;;;;;;;27.52;19.48;;;2.90;99.90;;;;;;5008905;28;21552;-86
2023/01/24 09:31:37;;;;;;;25.75;17.98;;;2.90;99.90;;;;;;5009145;28;20100;-87
2023/01/24 09:34:05;;;;;;;25.98;18.13;;;2.90;99.90;;;;;;5010744;28;20029;-84
2023/01/24 09:36:33;;;;;;;25.10;16.55;;;2.90;99.90;;;;;;5012750;28;20038;-85
2023/01/24 09:38:59;;;;;;;23.25;15.57;;;3.00;99.90;;;;;;5011657;28;20366;-84
2023/01/24 09:41:49;;;;;;;23.13;15.98;;;3.00;99.90;;;;;;5014554;28;20458;-87
2023/01/24 09:44:48;;;;;;;21.42;14.07;;;3.00;99.90;;;;;;4995295;28;20058;-84
2023/01/24 09:47:44;;;;;;;19.95;14.43;;;3.10;99.90;;;;;;5026468;28;20034;-85
2023/01/24 09:50:44;;;;;;;25.88;17.20;;;3.20;99.90;;;;;;5012703;28;20037;-85
2023/01/24 09:53:33;;;;;;;26.27;16.85;;;3.10;99.90;;;;;;4986676;28;20062;-85
2023/01/24 09:56:26;;;;;;;23.60;15.93;;;3.20;99.90;;;;;;5021656;28;20441;-86
2023/01/24 09:59:11;;;;;;;20.83;14.98;;;3.10;99.90;;;;;;5015158;28;20100;-85
2023/01/24 10:01:41;;;;;;;22.85;15.90;;;3.10;99.90;;;;;;5013341;28;20370;-84
2023/01/24 10:04:36;;;;;;;22.52;16.10;;;3.20;99.90;;;;;;5017642;28;20033;-85
2023/01/24 10:07:15;;;;;;;21.13;14.35;;;3.20;99.90;;;;;;5003541;28;20038;-85
2023/01/24 10:10:14;;;;;;;20.95;14.48;;;3.20;99.90;;;;;;5019798;28;20036;-84
2023/01/24 10:13:30;;;;;;;20.48;14.00;;;3.30;99.90;;;;;;5015268;28;20457;-84
2023/01/24 10:16:19;;;;;;;19.15;13.65;;;3.30;99.90;;;;;;5007762;28;20052;-84
2023/01/24 10:18:51;;;;;;;20.52;14.98;;;3.30;99.90;;;;;;5011159;28;20459;-84
2023/01/24 10:21:57;;;;;;;23.85;15.68;;;3.30;99.90;;;;;;5013913;28;20046;-85
2023/01/24 10:24:32;;;;;;;23.00;15.15;;;3.30;99.90;;;;;;5013427;28;20034;-85
2023/01/24 10:27:00;;;;;;;21.52;14.63;;;3.30;99.90;;;;;;5013249;28;20030;-85
2023/01/24 10:29:33;;;;;;;23.85;16.15;;;3.30;99.90;;;;;;5012331;28;20049;-84
2023/01/24 10:32:09;;;;;;;27.95;18.75;;;3.30;99.90;;;;;;5013896;28;20038;-82
2023/01/24 10:34:57;;;;;;;25.88;17.77;;;3.30;99.90;;;;;;5013938;28;20085;-84
2023/01/24 10:37:33;;;;;;;24.02;17.60;;;3.30;99.90;;;;;;5013776;28;20043;-84
2023/01/24 10:40:00;;;;;;;23.50;16.05;;;3.30;99.90;;;;;;5012380;28;20069;-85
2023/01/24 10:42:32;;;;;;;22.17;15.40;;;3.30;99.90;;;;;;5013533;28;20026;-84
2023/01/24 10:45:23;;;;;;;23.77;16.35;;;3.30;99.90;;;;;;5012967;28;20104;-83
2023/01/24 10:48:19;;;;;;;26.92;18.40;;;3.30;99.90;;;;;;5011165;28;20113;-84
2023/01/24 10:50:47;;;;;;;24.83;17.85;;;3.30;99.90;;;;;;4993070;28;20042;-84
2023/01/24 10:53:40;;;;;;;25.05;18.10;;;3.30;99.90;;;;;;4996072;28;20046;-83
2023/01/24 10:56:10;;;;;;;27.50;18.10;;;3.20;99.90;;;;;;5010978;28;20485;-83
2023/01/24 10:59:04;;;;;;;24.70;18.42;;;3.20;99.90;;;;;;5013354;28;20478;-83
2023/01/24 11:01:47;;;;;;;24.17;18.08;;;3.20;99.90;;;;;;4993266;28;20038;-84
2023/01/24 11:04:42;;;;;;;23.58;16.77;;;3.20;99.90;;;;;;5026124;28;20030;-88
2023/01/24 11:07:45;;;;;;;23.17;17.02;;;3.20;99.90;;;;;;5010878;28;20038;-83
2023/01/24 11:10:16;;;;;;;19.73;14.27;;;3.20;99.90;;;;;;4999100;28;20466;-84
2023/01/24 11:13:32;;;;;;;20.83;14.57;;;3.30;99.90;;;;;;5015162;28;20041;-84
2023/01/24 11:16:15;;;;;;;21.70;15.25;;;3.30;99.90;;;;;;4992430;28;20578;-84
2023/01/24 11:19:01;;;;;;;22.25;15.25;;;3.30;99.90;;;;;;5025676;28;20041;-84
2023/01/24 11:21:49;;;;;;;18.67;13.90;;;3.30;99.90;;;;;;5019305;28;20060;-85
2023/01/24 11:24:23;;;;;;;23.15;16.67;;;3.30;99.90;;;;;;5009367;28;20030;-85
2023/01/24 11:27:14;;;;;;;22.98;14.77;;;3.30;99.90;;;;;;5008579;28;20038;-85
2023/01/24 11:29:44;;;;;;;20.08;14.20;;;3.30;99.90;;;;;;5010206;28;20172;-83
2023/01/24 11:32:46;;;;;;;19.02;13.55;;;3.30;99.90;;;;;;5011335;28;20366;-83
2023/01/24 11:35:34;;;;;;;17.23;12.77;;;3.30;99.90;;;;;;5008446;28;20120;-85
2023/01/24 11:38:46;;;;;;;19.02;13.80;;;3.40;99.90;;;;;;4994949;28;20134;-85
2023/01/24 11:41:26;;;;;;;19.02;13.30;;;3.40;99.90;;;;;;5017088;28;20041;-85
2023/01/24 11:44:31;;;;;;;18.65;13.82;;;3.40;99.90;;;;;;4992187;28;20073;-85
2023/01/24 11:47:32;;;;;;;20.40;14.55;;;3.50;99.90;;;;;;5004235;28;20457;-85
2023/01/24 11:50:36;;;;;;;21.70;14.68;;;3.40;99.90;;;;;;5011361;28;20040;-85
2023/01/24 11:53:40;;;;;;;20.80;15.13;;;3.40;99.90;;;;;;5004283;28;20525;-84
2023/01/24 11:57:09;;;;;;;20.90;14.52;;;3.40;99.90;;;;;;5012396;28;20070;-85
2023/01/24 12:00:02;;;;;;;19.00;13.70;;;3.40;99.90;;;;;;4994527;28;20038;-85
2023/01/24 12:03:04;;;;;;;20.27;14.25;;;3.50;99.90;;;;;;5012666;28;20061;-85
2023/01/24 12:06:02;;;;;;;19.58;13.82;;;3.40;99.90;;;;;;5012310;28;20056;-84
2023/01/24 12:09:11;;;;;;;18.75;14.35;;;3.30;99.90;;;;;;5012370;28;20037;-85
2023/01/24 12:12:05;;;;;;;20.10;14.15;;;3.40;99.90;;;;;;5012235;28;20030;-84
2023/01/24 12:15:14;;;;;;;19.15;13.70;;;3.40;99.90;;;;;;5012088;28;20038;-84
2023/01/24 12:18:17;;;;;;;20.17;14.25;;;3.40;99.90;;;;;;5011416;28;20054;-83
2023/01/24 12:20:56;;;;;;;18.27;13.55;;;3.40;99.90;;;;;;5014462;28;20044;-84
2023/01/24 12:23:33;;;;;;;17.20;12.35;;;3.40;99.90;;;;;;5012675;28;20046;-86
2023/01/24 12:26:20;;;;;;;19.23;13.48;;;3.40;99.90;;;;;;5030219;28;20370;-84
2023/01/24 12:29:25;;;;;;;15.32;11.75;;;3.50;99.90;;;;;;5028420;28;20068;-83
2023/01/24 12:32:42;;;;;;;17.75;12.82;;;3.50;99.90;;;;;;5016401;28;20363;-85
2023/01/24 12:35:43;;;;;;;16.67;12.32;;;3.50;99.90;;;;;;5007721;28;20513;-86
2023/01/24 12:38:46;;;;;;;17.08;11.23;;;3.60;99.90;;;;;;5009109;28;20141;-85
2023/01/24 12:41:32;;;;;;;17.85;13.07;;;3.60;99.90;;;;;;4950674;28;20077;-86
2023/01/24 12:44:08;;;;;;;17.27;12.90;;;3.60;99.90;;;;;;4967023;28;20046;-86
2023/01/24 12:47:02;;;;;;;17.08;12.68;;;3.50;99.90;;;;;;4992459;28;20126;-85
2023/01/24 12:49:39;;;;;;;18.65;13.20;;;3.60;99.90;;;;;;4991671;28;20074;-86
2023/01/24 12:52:22;;;;;;;14.82;11.23;;;3.60;99.90;;;;;;5009242;28;20136;-84
2023/01/24 12:55:15;;;;;;;14.38;10.50;;;3.60;99.90;;;;;;4995046;28;20133;-85
2023/01/24 12:58:01;;;;;;;15.70;11.85;;;3.60;99.90;;;;;;5013096;28;20034;-85
2023/01/24 13:00:58;;;;;;;16.17;11.45;;;3.60;99.90;;;;;;5012013;28;20044;-87
2023/01/24 13:03:54;;;;;;;15.18;10.93;;;3.60;99.90;;;;;;4997122;28;20057;-86
2023/01/24 13:06:38;;;;;;;16.15;11.20;;;3.60;99.90;;;;;;5013143;28;20038;-85
2023/01/24 13:09:37;;;;;;;15.25;10.68;;;3.70;99.90;;;;;;4991809;28;20045;-86
2023/01/24 13:12:31;;;;;;;17.00;11.38;;;3.70;99.90;;;;;;5007597;28;20037;-85
2023/01/24 13:15:43;;;;;;;13.90;10.15;;;3.60;99.90;;;;;;5012627;28;20049;-85
2023/01/24 13:18:47;;;;;;;14.38;9.65;;;3.60;99.90;;;;;;5010491;28;20034;-84
2023/01/24 13:21:48;;;;;;;15.10;10.23;;;3.60;99.90;;;;;;5015567;28;20117;-85
2023/01/24 13:24:25;;;;;;;16.30;10.65;;;3.60;99.90;;;;;;5028038;28;20056;-84
2023/01/24 13:27:27;;;;;;;;;;;;;;;;;;;;;
2023/01/24 13:30:26;;;;;;;14.32;10.98;;;3.60;99.90;;;;;;5016349;28;20064;-84
2023/01/24 13:33:10;;;;;;;;;;;;;;;;;;;;;
2023/01/24 13:35:50;;;;;;;16.10;12.05;;;3.60;99.90;;;;;;5016172;28;20390;-85
2023/01/24 13:38:38;;;;;;;16.25;12.05;;;3.60;99.90;;;;;;5011395;28;20046;-84
2023/01/24 13:41:30;;;;;;;17.30;12.95;;;3.60;99.90;;;;;;5009238;28;20058;-85
2023/01/24 13:44:08;;;;;;;16.13;12.68;;;3.50;99.90;;;;;;4970153;28;20561;-85
2023/01/24 13:47:03;;;;;;;16.75;13.23;;;3.50;99.90;;;;;;5014330;28;20042;-84
2023/01/24 13:49:38;;;;;;;16.67;12.52;;;3.40;99.90;;;;;;5014348;28;20045;-84
2023/01/24 13:52:39;;;;;;;15.77;12.10;;;3.30;99.90;;;;;;5013396;28;20050;-84
2023/01/24 13:55:40;;;;;;;15.77;11.65;;;3.30;99.90;;;;;;5015387;28;20089;-84
2023/01/24 13:58:31;;;;;;;14.13;10.52;;;3.30;99.90;;;;;;5017075;28;20104;-83
2023/01/24 14:01:20;;;;;;;14.30;10.45;;;3.30;99.90;;;;;;5014750;28;20034;-84
2023/01/24 14:04:14;;;;;;;13.73;10.55;;;3.40;99.90;;;;;;5014648;28;20038;-85
2023/01/24 14:06:53;;;;;;;;;;;3.40;99.90;;;;;;5013879;28;20385;-85
2023/01/24 14:09:41;;;;;;;16.58;11.43;;;3.40;99.90;;;;;;5015758;28;19910;-87
2023/01/24 14:12:34;;;;;;;18.00;12.88;;;3.40;99.90;;;;;;4982725;28;20096;-83
2023/01/24 14:15:43;;;;;;;15.38;11.90;;;3.40;99.90;;;;;;5015825;28;20124;-84
2023/01/24 14:18:57;;;;;;;15.27;11.32;;;3.40;99.90;;;;;;5008134;28;20038;-85
2023/01/24 14:22:06;;;;;;;14.98;11.45;;;3.40;99.90;;;;;;5011396;28;20046;-84
2023/01/24 14:25:11;;;;;;;17.17;12.25;;;3.40;99.90;;;;;;5010460;28;20541;-84
2023/01/24 14:28:44;;;;;;;;;;;;;;;;;;;;;
2023/01/24 14:31:34;;;;;;;17.60;12.70;;;3.30;99.90;;;;;;4963115;28;20038;-84